createdAt,value
2022-12-01T00:01:34.197Z,30.13
2022-12-01T00:04:02.391Z,28.00
2022-12-01T00:06:30.516Z,30.33
2022-12-01T00:09:19.694Z,30.43
2022-12-01T00:11:48.608Z,28.43
2022-12-01T00:14:18.118Z,32.47
2022-12-01T00:16:46.469Z,27.50
2022-12-01T00:19:14.969Z,28.47
2022-12-01T00:21:43.110Z,31.27
2022-12-01T00:24:12.511Z,30.30
2022-12-01T00:26:40.720Z,31.50
2022-12-01T00:29:09.475Z,30.73
2022-12-01T00:31:39.014Z,28.77
2022-12-01T00:34:11.346Z,30.10
2022-12-01T00:36:40.817Z,29.67
2022-12-01T00:39:09.430Z,31.83
2022-12-01T00:41:37.665Z,29.63
2022-12-01T00:44:06.297Z,29.83
2022-12-01T00:46:34.600Z,28.67
2022-12-01T00:49:04.718Z,29.77
2022-12-01T00:51:32.929Z,33.40
2022-12-01T00:54:01.077Z,30.87
2022-12-01T00:56:29.204Z,31.67
2022-12-01T00:58:57.353Z,32.10
2022-12-01T01:01:25.531Z,33.30
2022-12-01T01:03:54.159Z,31.10
2022-12-01T01:06:23.605Z,32.80
2022-12-01T01:08:51.764Z,33.23
2022-12-01T01:11:19.952Z,31.50
2022-12-01T01:13:48.209Z,31.70
2022-12-01T01:16:18.825Z,32.53
2022-12-01T01:18:47.257Z,31.17
2022-12-01T01:21:17.149Z,31.30
2022-12-01T01:23:46.864Z,31.20
2022-12-01T01:26:18.431Z,30.20
2022-12-01T01:28:46.952Z,35.13
2022-12-01T01:31:17.714Z,31.77
2022-12-01T01:33:45.923Z,32.27
2022-12-01T01:36:16.203Z,33.90
2022-12-01T01:38:46.288Z,32.10
2022-12-01T01:41:15.543Z,34.70
2022-12-01T01:43:47.503Z,35.10
2022-12-01T01:46:18.033Z,32.60
2022-12-01T01:48:50.645Z,32.97
2022-12-01T01:51:23.417Z,32.60
2022-12-01T01:53:57.563Z,35.70
2022-12-01T01:56:25.824Z,33.20
2022-12-01T01:58:54.362Z,33.20
2022-12-01T02:01:22.672Z,36.63
2022-12-01T02:03:53.502Z,32.93
2022-12-01T02:06:23.863Z,36.80
2022-12-01T02:08:53.723Z,32.60
2022-12-01T02:11:49.329Z,29.67
2022-12-01T02:14:35.475Z,33.00
2022-12-01T02:17:12.616Z,31.13
2022-12-01T02:20:09.945Z,30.77
2022-12-01T02:22:54.595Z,33.43
2022-12-01T02:25:29.589Z,30.17
2022-12-01T02:28:25.381Z,31.10
2022-12-01T02:30:59.623Z,33.07
2022-12-01T02:33:33.427Z,33.60
2022-12-01T02:36:05.202Z,34.67
2022-12-01T02:38:39.774Z,32.60
2022-12-01T02:41:13.551Z,35.40
2022-12-01T02:43:48.171Z,34.07
2022-12-01T02:46:25.859Z,35.13
2022-12-01T02:48:56.373Z,37.20
2022-12-01T02:51:29.106Z,32.93
2022-12-01T02:53:59.056Z,33.83
2022-12-01T02:56:27.391Z,35.60
2022-12-01T02:58:56.027Z,38.83
2022-12-01T03:01:45.057Z,35.60
2022-12-01T03:04:31.619Z,34.43
2022-12-01T03:07:10.744Z,34.03
2022-12-01T03:09:47.774Z,34.63
2022-12-01T03:12:24.911Z,36.70
2022-12-01T03:15:04.224Z,36.77
2022-12-01T03:17:41.574Z,33.90
2022-12-01T03:20:15.975Z,32.53
2022-12-01T03:22:50.301Z,36.60
2022-12-01T03:25:20.864Z,32.03
2022-12-01T03:28:20.109Z,34.43
2022-12-01T03:30:46.974Z,34.40
2022-12-01T03:33:22.032Z,36.70
2022-12-01T03:35:55.051Z,36.50
2022-12-01T03:38:26.016Z,36.93
2022-12-01T03:40:59.215Z,37.10
2022-12-01T03:43:31.493Z,37.43
2022-12-01T03:46:04.878Z,35.23
2022-12-01T03:48:35.136Z,35.53
2022-12-01T03:51:10.970Z,40.53
2022-12-01T03:53:48.074Z,39.67
2022-12-01T03:56:20.819Z,36.00
2022-12-01T03:58:52.037Z,40.40
2022-12-01T04:01:22.281Z,38.00
2022-12-01T04:03:51.846Z,38.43
2022-12-01T04:06:20.059Z,41.17
2022-12-01T04:08:48.181Z,38.80
2022-12-01T04:11:34.320Z,41.10
2022-12-01T04:14:02.474Z,38.93
2022-12-01T04:16:30.680Z,40.80
2022-12-01T04:19:01.518Z,43.63
2022-12-01T04:21:29.701Z,43.30
2022-12-01T04:24:01.057Z,41.27
2022-12-01T04:26:30.832Z,42.80
2022-12-01T04:28:59.502Z,41.03
2022-12-01T04:31:27.853Z,41.00
2022-12-01T04:33:56.454Z,46.10
2022-12-01T04:36:26.002Z,43.63
2022-12-01T04:38:54.612Z,48.87
2022-12-01T04:41:22.898Z,47.47
2022-12-01T04:43:53.748Z,47.87
2022-12-01T04:46:22.608Z,45.00
2022-12-01T04:48:50.961Z,46.57
2022-12-01T04:51:19.363Z,48.83
2022-12-01T04:53:49.132Z,50.20
2022-12-01T04:56:17.841Z,49.40
2022-12-01T04:58:46.068Z,47.20
2022-12-01T05:01:16.810Z,44.20
2022-12-01T05:03:46.710Z,46.43
2022-12-01T05:06:17.592Z,49.80
2022-12-01T05:08:45.769Z,48.67
2022-12-01T05:11:16.547Z,48.93
2022-12-01T05:13:46.629Z,52.47
2022-12-01T05:16:16.703Z,48.00
2022-12-01T05:18:49.000Z,54.53
2022-12-01T05:21:16.984Z,50.33
2022-12-01T05:23:45.679Z,46.97
2022-12-01T05:26:15.516Z,44.70
2022-12-01T05:28:43.676Z,47.27
2022-12-01T05:31:12.100Z,44.43
2022-12-01T05:33:40.361Z,42.33
2022-12-01T05:36:09.067Z,44.27
2022-12-01T05:38:37.212Z,43.53
2022-12-01T05:41:05.546Z,44.87
2022-12-01T05:43:35.041Z,43.60
2022-12-01T05:46:03.885Z,45.67
2022-12-01T05:48:32.119Z,43.43
2022-12-01T05:51:00.277Z,48.20
2022-12-01T05:53:28.437Z,40.97
2022-12-01T05:55:56.856Z,46.80
2022-12-01T05:58:25.032Z,41.47
2022-12-01T06:00:55.102Z,46.93
2022-12-01T06:03:23.286Z,44.90
2022-12-01T06:05:51.829Z,41.20
2022-12-01T06:08:20.577Z,42.67
2022-12-01T06:10:48.737Z,50.83
2022-12-01T06:13:17.157Z,46.43
2022-12-01T06:15:45.377Z,43.93
2022-12-01T06:18:14.839Z,46.40
2022-12-01T06:20:43.002Z,44.30
2022-12-01T06:23:11.139Z,47.23
2022-12-01T06:25:39.272Z,48.33
2022-12-01T06:28:07.403Z,48.13
2022-12-01T06:30:35.972Z,48.77
2022-12-01T06:33:04.250Z,46.10
2022-12-01T06:35:33.885Z,47.67
2022-12-01T06:38:02.322Z,47.77
2022-12-01T06:40:30.508Z,45.50
2022-12-01T06:43:00.876Z,43.27
2022-12-01T06:45:30.160Z,44.07
2022-12-01T06:47:59.240Z,45.00
2022-12-01T06:50:27.632Z,46.43
2022-12-01T06:52:59.262Z,47.97
2022-12-01T06:55:27.586Z,44.10
2022-12-01T06:57:56.080Z,41.73
2022-12-01T07:00:24.489Z,39.50
2022-12-01T07:02:52.671Z,47.23
2022-12-01T07:05:21.035Z,42.53
2022-12-01T07:07:49.307Z,44.93
2022-12-01T07:10:18.933Z,42.60
2022-12-01T07:12:47.089Z,43.73
2022-12-01T07:15:15.253Z,40.90
2022-12-01T07:17:43.575Z,42.37
2022-12-01T07:20:13.002Z,43.77
2022-12-01T07:22:42.974Z,39.63
2022-12-01T07:25:11.110Z,45.40
2022-12-01T07:27:40.603Z,42.63
2022-12-01T07:30:09.888Z,39.20
2022-12-01T07:32:38.166Z,40.20
2022-12-01T07:35:07.705Z,41.47
2022-12-01T07:37:35.840Z,41.03
2022-12-01T07:40:04.323Z,40.73
2022-12-01T07:42:32.477Z,39.23
2022-12-01T07:45:02.004Z,40.50
2022-12-01T07:47:30.116Z,38.17
2022-12-01T07:49:58.325Z,36.63
2022-12-01T07:52:26.767Z,38.90
2022-12-01T07:54:54.948Z,37.73
2022-12-01T07:57:23.755Z,37.30
2022-12-01T07:59:52.991Z,36.27
2022-12-01T08:02:22.555Z,36.57
2022-12-01T08:04:51.012Z,38.40
2022-12-01T08:07:19.147Z,36.50
2022-12-01T08:09:47.606Z,32.47
2022-12-01T08:12:15.996Z,32.10
2022-12-01T08:14:44.133Z,33.37
2022-12-01T08:17:12.288Z,35.53
2022-12-01T08:19:42.040Z,36.83
2022-12-01T08:22:10.211Z,34.20
2022-12-01T08:24:38.449Z,35.93
2022-12-01T08:27:06.607Z,34.17
2022-12-01T08:29:36.251Z,34.27
2022-12-01T08:32:05.324Z,32.57
2022-12-01T08:34:36.284Z,33.73
2022-12-01T08:37:05.765Z,33.87
2022-12-01T08:39:34.306Z,35.37
2022-12-01T08:42:02.532Z,32.83
2022-12-01T08:44:30.705Z,33.97
2022-12-01T08:46:58.946Z,33.83
2022-12-01T08:49:27.116Z,31.57
2022-12-01T08:51:56.657Z,31.57
2022-12-01T08:54:26.252Z,35.43
2022-12-01T08:56:54.656Z,32.27
2022-12-01T08:59:22.779Z,30.43
2022-12-01T09:01:53.862Z,33.73
2022-12-01T09:04:24.960Z,31.20
2022-12-01T09:06:54.674Z,28.50
2022-12-01T09:09:25.056Z,32.40
2022-12-01T09:11:55.212Z,28.87
2022-12-01T09:14:24.699Z,31.40
2022-12-01T09:16:53.198Z,30.93
2022-12-01T09:19:24.939Z,30.00
2022-12-01T09:21:53.831Z,32.23
2022-12-01T09:24:22.050Z,30.27
2022-12-01T09:26:50.668Z,31.53
2022-12-01T09:29:20.132Z,28.23
2022-12-01T09:31:48.618Z,30.53
2022-12-01T09:34:19.428Z,28.50
2022-12-01T09:36:48.566Z,30.43
2022-12-01T09:39:20.311Z,27.30
2022-12-01T09:41:54.135Z,27.90
2022-12-01T09:44:32.359Z,29.13
2022-12-01T09:47:09.129Z,30.40
2022-12-01T09:49:45.482Z,30.40
2022-12-01T09:52:16.757Z,30.93
2022-12-01T09:54:45.742Z,28.00
2022-12-01T09:57:18.809Z,31.40
2022-12-01T09:59:48.613Z,28.40
2022-12-01T10:02:32.760Z,27.93
2022-12-01T10:05:05.549Z,27.87
2022-12-01T10:07:39.283Z,29.97
2022-12-01T10:10:12.705Z,28.47
2022-12-01T10:12:43.344Z,30.43
2022-12-01T10:15:23.557Z,29.13
2022-12-01T10:18:03.603Z,30.63
2022-12-01T10:20:40.454Z,31.27
2022-12-01T10:23:23.962Z,28.83
2022-12-01T10:25:57.811Z,27.40
2022-12-01T10:28:52.960Z,27.20
2022-12-01T10:31:30.212Z,30.13
2022-12-01T10:34:03.151Z,31.43
2022-12-01T10:36:33.126Z,31.67
2022-12-01T10:39:02.251Z,30.50
2022-12-01T10:41:34.898Z,32.57
2022-12-01T10:44:06.597Z,33.67
2022-12-01T10:46:41.911Z,32.00
2022-12-01T10:49:11.940Z,33.53
2022-12-01T10:51:53.062Z,32.63
2022-12-01T10:54:23.067Z,30.77
2022-12-01T10:56:57.074Z,32.77
2022-12-01T10:59:30.855Z,30.57
2022-12-01T11:02:02.841Z,29.47
2022-12-01T11:04:45.432Z,28.60
2022-12-01T11:07:20.369Z,29.77
2022-12-01T11:10:05.450Z,30.33
2022-12-01T11:12:34.583Z,27.37
2022-12-01T11:15:03.212Z,28.17
2022-12-01T11:17:37.966Z,25.77
2022-12-01T11:20:29.875Z,27.10
2022-12-01T11:23:24.736Z,28.27
2022-12-01T11:26:03.903Z,27.17
2022-12-01T11:28:33.921Z,26.40
2022-12-01T11:31:04.975Z,25.87
2022-12-01T11:33:45.098Z,24.97
2022-12-01T11:36:23.796Z,25.10
2022-12-01T11:38:57.696Z,28.03
2022-12-01T11:41:30.714Z,27.00
2022-12-01T11:44:02.739Z,25.30
2022-12-01T11:46:35.311Z,27.70
2022-12-01T11:49:05.009Z,26.60
2022-12-01T11:51:37.518Z,26.27
2022-12-01T11:54:13.964Z,26.03
2022-12-01T11:56:44.279Z,24.83
2022-12-01T11:59:15.345Z,27.53
2022-12-01T12:01:59.570Z,27.73
2022-12-01T12:04:44.186Z,24.77
2022-12-01T12:07:22.337Z,24.60
2022-12-01T12:10:04.519Z,25.07
2022-12-01T12:12:48.209Z,25.00
2022-12-01T12:15:25.934Z,27.00
2022-12-01T12:18:22.177Z,24.60
2022-12-01T12:21:05.270Z,27.33
2022-12-01T12:24:04.249Z,23.57
2022-12-01T12:26:39.670Z,26.33
2022-12-01T12:29:20.939Z,24.97
2022-12-01T12:32:02.537Z,24.63
2022-12-01T12:34:44.949Z,26.10
2022-12-01T12:37:24.639Z,25.00
2022-12-01T12:40:47.094Z,25.03
2022-12-01T12:43:23.627Z,24.70
2022-12-01T12:46:03.676Z,21.93
2022-12-01T12:49:11.743Z,25.00
2022-12-01T12:51:37.948Z,26.33
2022-12-01T12:54:19.195Z,23.97
2022-12-01T12:56:53.989Z,24.60
2022-12-01T12:59:25.811Z,24.90
2022-12-01T13:02:01.726Z,24.80
2022-12-01T13:04:36.594Z,25.27
2022-12-01T13:07:10.040Z,25.57
2022-12-01T13:09:43.312Z,26.20
2022-12-01T13:12:15.982Z,28.10
2022-12-01T13:14:49.643Z,27.10
2022-12-01T13:17:22.483Z,26.43
2022-12-01T13:19:51.136Z,27.30
2022-12-01T13:22:32.808Z,25.20
2022-12-01T13:25:03.566Z,28.03
2022-12-01T13:27:35.343Z,24.50
2022-12-01T13:30:04.080Z,23.63
2022-12-01T13:32:35.652Z,25.47
2022-12-01T13:35:08.010Z,25.23
2022-12-01T13:37:38.896Z,27.37
2022-12-01T13:40:22.188Z,28.37
2022-12-01T13:42:58.515Z,27.30
2022-12-01T13:45:33.057Z,27.67
2022-12-01T13:48:05.299Z,25.97
2022-12-01T13:51:04.268Z,25.23
2022-12-01T13:53:35.488Z,27.73
2022-12-01T13:56:39.613Z,25.30
2022-12-01T13:59:44.963Z,26.53
2022-12-01T14:02:18.460Z,24.57
2022-12-01T14:04:47.279Z,27.50
2022-12-01T14:07:34.125Z,31.87
2022-12-01T14:10:17.912Z,26.80
2022-12-01T14:12:47.669Z,26.13
2022-12-01T14:15:30.052Z,28.20
2022-12-01T14:18:07.718Z,27.07
2022-12-01T14:20:45.439Z,27.03
2022-12-01T14:23:24.107Z,24.63
2022-12-01T14:26:15.041Z,25.13
2022-12-01T14:29:11.353Z,27.27
2022-12-01T14:32:04.339Z,28.03
2022-12-01T14:34:35.159Z,27.77
2022-12-01T14:37:08.597Z,25.63
2022-12-01T14:39:39.430Z,27.30
2022-12-01T14:42:52.350Z,26.60
2022-12-01T14:45:24.973Z,26.73
2022-12-01T14:48:00.638Z,25.70
2022-12-01T14:50:42.098Z,27.00
2022-12-01T14:53:22.603Z,28.17
2022-12-01T14:55:56.508Z,25.30
2022-12-01T14:58:27.723Z,25.17
2022-12-01T15:01:06.747Z,27.20
2022-12-01T15:03:40.777Z,27.20
2022-12-01T15:06:10.107Z,24.00
2022-12-01T15:08:45.916Z,27.73
2022-12-01T15:11:25.387Z,25.40
2022-12-01T15:13:55.468Z,27.03
2022-12-01T15:16:27.434Z,25.33
2022-12-01T15:18:56.218Z,25.13
2022-12-01T15:21:27.253Z,25.60
2022-12-01T15:23:58.053Z,23.30
2022-12-01T15:26:29.226Z,26.17
2022-12-01T15:29:15.437Z,26.17
2022-12-01T15:31:46.970Z,27.23
2022-12-01T15:34:17.421Z,25.50
2022-12-01T15:36:46.779Z,27.83
2022-12-01T15:39:17.689Z,24.03
2022-12-01T15:41:48.168Z,25.10
2022-12-01T15:44:22.728Z,29.50
2022-12-01T15:46:52.159Z,25.50
2022-12-01T15:49:27.348Z,26.10
2022-12-01T15:51:56.937Z,24.30
2022-12-01T15:54:27.344Z,26.30
2022-12-01T15:56:58.523Z,28.60
2022-12-01T15:59:30.895Z,26.37
2022-12-01T16:02:05.813Z,26.40
2022-12-01T16:04:35.450Z,27.03
2022-12-01T16:07:07.871Z,26.60
2022-12-01T16:09:37.718Z,26.73
2022-12-01T16:12:19.700Z,29.67
2022-12-01T16:14:54.409Z,28.97
2022-12-01T16:17:25.365Z,26.87
2022-12-01T16:20:16.236Z,27.03
2022-12-01T16:22:46.080Z,25.90
2022-12-01T16:25:19.477Z,25.67
2022-12-01T16:27:54.191Z,24.47
2022-12-01T16:30:24.729Z,28.70
2022-12-01T16:33:02.255Z,26.53
2022-12-01T16:35:33.580Z,29.53
2022-12-01T16:38:06.324Z,27.00
2022-12-01T16:40:34.489Z,27.10
2022-12-01T16:43:02.637Z,25.80
2022-12-01T16:45:31.049Z,24.27
2022-12-01T16:48:04.752Z,25.60
2022-12-01T16:50:36.063Z,25.77
2022-12-01T16:53:04.548Z,26.77
2022-12-01T16:55:38.804Z,27.07
2022-12-01T16:58:07.085Z,27.57
2022-12-01T17:00:35.302Z,25.27
2022-12-01T17:03:05.508Z,26.03
2022-12-01T17:05:34.542Z,27.43
2022-12-01T17:08:02.760Z,26.83
2022-12-01T17:10:30.992Z,24.80
2022-12-01T17:12:59.399Z,25.27
2022-12-01T17:15:27.534Z,25.10
2022-12-01T17:17:55.704Z,26.20
2022-12-01T17:20:25.161Z,25.37
2022-12-01T17:22:53.300Z,26.47
2022-12-01T17:25:21.458Z,25.77
2022-12-01T17:27:49.832Z,26.80
2022-12-01T17:30:18.437Z,24.67
2022-12-01T17:32:47.243Z,26.07
2022-12-01T17:35:15.745Z,25.47
2022-12-01T17:37:45.217Z,25.73
2022-12-01T17:40:14.779Z,24.87
2022-12-01T17:42:48.767Z,26.67
2022-12-01T17:45:19.284Z,24.43
2022-12-01T17:47:47.658Z,26.17
2022-12-01T17:50:16.161Z,28.23
2022-12-01T17:52:45.635Z,24.70
2022-12-01T17:55:13.982Z,27.67
2022-12-01T17:57:42.113Z,25.00
2022-12-01T18:00:11.426Z,26.60
2022-12-01T18:02:39.651Z,25.80
2022-12-01T18:05:09.507Z,27.90
2022-12-01T18:07:38.068Z,28.27
2022-12-01T18:10:08.165Z,28.60
2022-12-01T18:12:36.309Z,24.67
2022-12-01T18:15:05.164Z,26.50
2022-12-01T18:17:33.310Z,27.87
2022-12-01T18:20:01.582Z,26.83
2022-12-01T18:22:29.913Z,28.13
2022-12-01T18:24:58.688Z,25.37
2022-12-01T18:27:28.143Z,27.67
2022-12-01T18:29:56.317Z,25.57
2022-12-01T18:32:24.457Z,26.10
2022-12-01T18:34:53.078Z,27.27
2022-12-01T18:37:21.527Z,24.50
2022-12-01T18:39:49.749Z,26.20
2022-12-01T18:42:17.893Z,24.93
2022-12-01T18:44:47.799Z,25.00
2022-12-01T18:47:16.155Z,25.10
2022-12-01T18:49:44.340Z,26.37
2022-12-01T18:52:12.869Z,28.00
2022-12-01T18:54:41.006Z,27.63
2022-12-01T18:57:09.163Z,27.97
2022-12-01T18:59:37.296Z,26.30
2022-12-01T19:02:06.936Z,28.87
2022-12-01T19:04:36.066Z,27.97
2022-12-01T19:07:04.699Z,26.20
2022-12-01T19:09:32.921Z,26.20
2022-12-01T19:12:01.050Z,25.80
2022-12-01T19:14:29.801Z,26.43
2022-12-01T19:17:00.557Z,26.23
2022-12-01T19:19:35.848Z,27.97
2022-12-01T19:22:05.867Z,26.20
2022-12-01T19:24:34.019Z,26.23
2022-12-01T19:27:02.168Z,26.37
2022-12-01T19:29:30.281Z,24.27
2022-12-01T19:31:58.609Z,23.40
2022-12-01T19:34:26.831Z,25.77
2022-12-01T19:36:56.923Z,26.33
2022-12-01T19:39:25.102Z,25.00
2022-12-01T19:41:53.813Z,27.47
2022-12-01T19:44:21.929Z,25.47
2022-12-01T19:46:50.048Z,26.63
2022-12-01T19:49:18.242Z,27.50
2022-12-01T19:51:46.414Z,25.07
2022-12-01T19:54:17.762Z,26.73
2022-12-01T19:56:46.452Z,26.00
2022-12-01T19:59:14.981Z,28.70
2022-12-01T20:01:43.242Z,25.77
2022-12-01T20:04:11.501Z,27.60
2022-12-01T20:06:39.672Z,26.23
2022-12-01T20:09:09.693Z,27.40
2022-12-01T20:11:39.259Z,28.10
2022-12-01T20:14:08.493Z,27.60
2022-12-01T20:16:38.726Z,27.80
2022-12-01T20:19:07.226Z,27.17
2022-12-01T20:21:39.229Z,27.40
2022-12-01T20:24:09.209Z,25.00
2022-12-01T20:26:41.516Z,27.03
2022-12-01T20:29:13.265Z,27.77
2022-12-01T20:31:42.309Z,27.10
2022-12-01T20:34:14.386Z,28.20
2022-12-01T20:36:43.315Z,26.50
2022-12-01T20:39:12.534Z,26.03
2022-12-01T20:41:43.397Z,27.30
2022-12-01T20:44:12.701Z,25.83
2022-12-01T20:46:41.812Z,26.27
2022-12-01T20:49:10.392Z,25.70
2022-12-01T20:51:39.209Z,26.07
2022-12-01T20:57:00.221Z,27.10
2022-12-01T20:59:29.197Z,27.37
2022-12-01T21:01:57.555Z,25.73
2022-12-01T21:04:26.064Z,27.03
2022-12-01T21:06:56.762Z,30.27
2022-12-01T21:09:25.988Z,28.47
2022-12-01T21:12:12.145Z,27.53
2022-12-01T21:14:48.586Z,29.10
2022-12-01T21:17:26.821Z,29.10
2022-12-01T21:20:01.571Z,25.30
2022-12-01T21:22:29.998Z,28.00
2022-12-01T21:25:10.989Z,27.03
2022-12-01T21:27:39.171Z,28.10
2022-12-01T21:30:17.225Z,27.63
2022-12-01T21:32:46.550Z,25.87
2022-12-01T21:35:18.887Z,25.40
2022-12-01T21:37:48.216Z,26.40
2022-12-01T21:40:22.490Z,24.23
2022-12-01T21:42:51.439Z,26.37
2022-12-01T21:45:27.311Z,25.90
2022-12-01T21:48:01.352Z,26.07
2022-12-01T21:50:29.507Z,24.17
2022-12-01T21:52:58.886Z,25.43
2022-12-01T21:55:36.135Z,24.10
2022-12-01T21:58:20.735Z,24.43
2022-12-01T22:00:50.363Z,27.97
2022-12-01T22:03:30.737Z,27.60
2022-12-01T22:06:28.370Z,28.77
2022-12-01T22:08:52.430Z,25.57
2022-12-01T22:11:23.107Z,26.17
2022-12-01T22:13:56.058Z,26.57
2022-12-01T22:16:31.548Z,28.03
2022-12-01T22:19:01.098Z,25.13
2022-12-01T22:21:33.445Z,27.73
2022-12-01T22:24:30.171Z,25.63
2022-12-01T22:27:10.479Z,25.27
2022-12-01T22:29:42.828Z,27.17
2022-12-01T22:32:34.889Z,24.37
2022-12-01T22:35:23.617Z,26.07
2022-12-01T22:37:53.117Z,24.80
2022-12-01T22:40:37.283Z,25.97
2022-12-01T22:43:25.892Z,26.70
2022-12-01T22:46:03.293Z,26.13
2022-12-01T22:48:38.448Z,25.60
2022-12-01T22:51:22.898Z,24.80
2022-12-01T22:53:55.673Z,25.60
2022-12-01T22:56:34.831Z,24.47
2022-12-01T22:59:13.923Z,24.30
2022-12-01T23:01:48.841Z,26.17
2022-12-01T23:04:26.412Z,23.97
2022-12-01T23:06:59.581Z,29.23
2022-12-01T23:09:32.278Z,25.13
2022-12-01T23:12:06.662Z,25.60
2022-12-01T23:14:35.504Z,26.37
2022-12-01T23:17:08.129Z,27.50
2022-12-01T23:19:37.611Z,25.77
2022-12-01T23:22:05.901Z,25.60
2022-12-01T23:24:34.516Z,26.87
2022-12-01T23:27:02.911Z,24.40
2022-12-01T23:29:31.937Z,27.43
2022-12-01T23:32:01.763Z,27.00
2022-12-01T23:34:30.157Z,28.07
2022-12-01T23:36:59.661Z,26.30
2022-12-01T23:39:32.865Z,30.80
2022-12-01T23:42:01.277Z,26.60
2022-12-01T23:44:38.750Z,28.47
2022-12-01T23:47:16.911Z,25.47
2022-12-01T23:49:46.365Z,27.70
2022-12-01T23:52:19.695Z,29.60
2022-12-01T23:54:48.101Z,26.90
2022-12-01T23:57:21.236Z,27.20
2022-12-01T23:59:50.291Z,27.47
